sensor_id;sensor_type;location;lat;lon;timestamp;pressure;altitude;pressure_sealevel;temperature;humidity
5296;BME280;2670;42.720;23.336;2023-03-21T00:02:06;-22763.81;;;11.06;72.18
5296;BME280;2670;42.720;23.336;2023-03-21T00:04:33;-22763.50;;;11.05;71.95
5296;BME280;2670;42.720;23.336;2023-03-21T00:07:00;-22763.66;;;11.06;72.10
5296;BME280;2670;42.720;23.336;2023-03-21T00:09:26;-22763.38;;;11.05;71.83
5296;BME280;2670;42.720;23.336;2023-03-21T00:11:53;-22764.25;;;11.08;71.51
5296;BME280;2670;42.720;23.336;2023-03-21T00:14:20;-22768.84;;;11.23;70.11
5296;BME280;2670;42.720;23.336;2023-03-21T00:16:49;-22767.22;;;11.18;69.59
5296;BME280;2670;42.720;23.336;2023-03-21T00:19:16;-22762.63;;;11.02;70.77
5296;BME280;2670;42.720;23.336;2023-03-21T00:21:43;-22759.97;;;10.93;71.96
5296;BME280;2670;42.720;23.336;2023-03-21T00:24:11;-22760.09;;;10.93;72.28
5296;BME280;2670;42.720;23.336;2023-03-21T00:26:37;-22758.63;;;10.88;72.97
5296;BME280;2670;42.720;23.336;2023-03-21T00:29:04;-22757.28;;;10.84;73.85
5296;BME280;2670;42.720;23.336;2023-03-21T00:31:31;-22757.72;;;10.85;73.42
5296;BME280;2670;42.720;23.336;2023-03-21T00:34:00;-22756.09;;;10.80;73.54
5296;BME280;2670;42.720;23.336;2023-03-21T00:36:27;-22753.88;;;10.72;73.24
5296;BME280;2670;42.720;23.336;2023-03-21T00:38:54;-22754.63;;;10.75;73.48
5296;BME280;2670;42.720;23.336;2023-03-21T00:41:21;-22753.88;;;10.72;74.54
5296;BME280;2670;42.720;23.336;2023-03-21T00:43:47;-22751.50;;;10.64;75.27
5296;BME280;2670;42.720;23.336;2023-03-21T00:46:14;-22750.94;;;10.62;75.95
5296;BME280;2670;42.720;23.336;2023-03-21T00:48:41;-22749.44;;;10.57;76.39
5296;BME280;2670;42.720;23.336;2023-03-21T00:51:13;-22747.97;;;10.52;77.04
5296;BME280;2670;42.720;23.336;2023-03-21T00:53:45;-22746.47;;;10.46;76.87
5296;BME280;2670;42.720;23.336;2023-03-21T00:56:12;-22745.28;;;10.42;76.86
5296;BME280;2670;42.720;23.336;2023-03-21T00:58:39;-22744.09;;;10.38;76.73
5296;BME280;2670;42.720;23.336;2023-03-21T01:01:06;-22742.63;;;10.33;77.49
5296;BME280;2670;42.720;23.336;2023-03-21T01:03:33;-22739.22;;;10.21;77.72
5296;BME280;2670;42.720;23.336;2023-03-21T01:06:08;-22739.34;;;10.22;78.26
5296;BME280;2670;42.720;23.336;2023-03-21T01:08:40;-22738.78;;;10.20;78.71
5296;BME280;2670;42.720;23.336;2023-03-21T01:11:09;-22737.88;;;10.17;79.27
5296;BME280;2670;42.720;23.336;2023-03-21T01:13:36;-22735.66;;;10.09;79.30
5296;BME280;2670;42.720;23.336;2023-03-21T01:16:04;-22734.75;;;10.06;80.12
5296;BME280;2670;42.720;23.336;2023-03-21T01:18:33;-22735.50;;;10.09;79.73
5296;BME280;2670;42.720;23.336;2023-03-21T01:21:01;-22732.41;;;9.98;80.65
5296;BME280;2670;42.720;23.336;2023-03-21T01:23:28;-22730.47;;;9.91;81.54
5296;BME280;2670;42.720;23.336;2023-03-21T01:25:56;-22728.41;;;9.84;81.77
5296;BME280;2670;42.720;23.336;2023-03-21T01:28:25;-22729.56;;;9.88;81.57
5296;BME280;2670;42.720;23.336;2023-03-21T01:30:52;-22728.09;;;9.83;81.94
5296;BME280;2670;42.720;23.336;2023-03-21T01:33:20;-22727.50;;;9.81;81.95
5296;BME280;2670;42.720;23.336;2023-03-21T01:35:47;-22729.44;;;9.88;81.48
5296;BME280;2670;42.720;23.336;2023-03-21T01:38:14;-22728.41;;;9.84;80.64
5296;BME280;2670;42.720;23.336;2023-03-21T01:40:43;-22727.06;;;9.80;81.02
5296;BME280;2670;42.720;23.336;2023-03-21T01:43:20;-22728.53;;;9.85;80.80
5296;BME280;2670;42.720;23.336;2023-03-21T01:46:38;-22729.72;;;9.89;80.91
5296;BME280;2670;42.720;23.336;2023-03-21T01:49:13;-22722.16;;;9.63;82.68
5296;BME280;2670;42.720;23.336;2023-03-21T01:51:46;-22717.13;;;9.45;82.86
5296;BME280;2670;42.720;23.336;2023-03-21T01:54:18;-22720.97;;;9.59;80.94
5296;BME280;2670;42.720;23.336;2023-03-21T01:56:50;-22719.78;;;9.55;81.42
5296;BME280;2670;42.720;23.336;2023-03-21T01:59:24;-22726.91;;;9.79;79.25
5296;BME280;2670;42.720;23.336;2023-03-21T02:01:52;-22719.78;;;9.55;80.46
5296;BME280;2670;42.720;23.336;2023-03-21T02:04:21;-22719.06;;;9.52;80.97
5296;BME280;2670;42.720;23.336;2023-03-21T02:06:56;-22721.13;;;9.59;80.91
5296;BME280;2670;42.720;23.336;2023-03-21T02:09:27;-22719.78;;;9.55;80.43
5296;BME280;2670;42.720;23.336;2023-03-21T02:11:58;-22717.88;;;9.48;80.99
5296;BME280;2670;42.720;23.336;2023-03-21T02:14:26;-22717.72;;;9.47;81.54
5296;BME280;2670;42.720;23.336;2023-03-21T02:17:02;-22716.53;;;9.43;81.73
5296;BME280;2670;42.720;23.336;2023-03-21T02:20:01;-22716.09;;;9.42;82.23
5296;BME280;2670;42.720;23.336;2023-03-21T02:22:52;-22713.56;;;9.33;82.94
5296;BME280;2670;42.720;23.336;2023-03-21T02:25:42;-22713.41;;;9.33;83.47
5296;BME280;2670;42.720;23.336;2023-03-21T02:28:18;-22711.63;;;9.27;83.18
5296;BME280;2670;42.720;23.336;2023-03-21T02:31:18;-22710.16;;;9.21;83.75
5296;BME280;2670;42.720;23.336;2023-03-21T02:34:07;-22709.13;;;9.18;84.16
5296;BME280;2670;42.720;23.336;2023-03-21T02:36:53;-22707.19;;;9.11;84.38
5296;BME280;2670;42.720;23.336;2023-03-21T02:39:25;-22705.69;;;9.06;85.05
5296;BME280;2670;42.720;23.336;2023-03-21T02:42:02;-22704.66;;;9.03;85.45
5296;BME280;2670;42.720;23.336;2023-03-21T02:44:34;-22704.06;;;9.01;85.06
5296;BME280;2670;42.720;23.336;2023-03-21T02:47:09;-22703.19;;;8.97;85.13
5296;BME280;2670;42.720;23.336;2023-03-21T02:49:41;-22702.72;;;8.96;85.17
5296;BME280;2670;42.720;23.336;2023-03-21T02:52:15;-22702.28;;;8.94;85.30
5296;BME280;2670;42.720;23.336;2023-03-21T02:54:45;-22700.66;;;8.89;85.02
5296;BME280;2670;42.720;23.336;2023-03-21T02:57:13;-22699.31;;;8.84;85.17
5296;BME280;2670;42.720;23.336;2023-03-21T02:59:41;-22698.13;;;8.80;86.30
5296;BME280;2670;42.720;23.336;2023-03-21T03:02:08;-22696.19;;;8.73;86.38
5296;BME280;2670;42.720;23.336;2023-03-21T03:04:35;-22695.03;;;8.69;87.28
5296;BME280;2670;42.720;23.336;2023-03-21T03:07:15;-22694.72;;;8.68;87.39
5296;BME280;2670;42.720;23.336;2023-03-21T03:09:54;-22692.03;;;8.59;88.57
5296;BME280;2670;42.720;23.336;2023-03-21T03:12:31;-22690.41;;;8.54;89.22
5296;BME280;2670;42.720;23.336;2023-03-21T03:15:08;-22690.13;;;8.53;89.16
5296;BME280;2670;42.720;23.336;2023-03-21T03:17:49;-22687.75;;;8.44;89.56
5296;BME280;2670;42.720;23.336;2023-03-21T03:20:27;-22688.19;;;8.46;89.42
5296;BME280;2670;42.720;23.336;2023-03-21T03:23:04;-22686.84;;;8.41;89.69
5296;BME280;2670;42.720;23.336;2023-03-21T03:25:39;-22688.03;;;8.45;89.68
5296;BME280;2670;42.720;23.336;2023-03-21T03:28:08;-22689.53;;;8.51;88.81
5296;BME280;2670;42.720;23.336;2023-03-21T03:30:36;-22688.03;;;8.45;88.76
5296;BME280;2670;42.720;23.336;2023-03-21T03:33:05;-22688.19;;;8.46;88.74
5296;BME280;2670;42.720;23.336;2023-03-21T03:35:34;-22685.97;;;8.38;88.87
5296;BME280;2670;42.720;23.336;2023-03-21T03:38:04;-22686.25;;;8.39;89.41
5296;BME280;2670;42.720;23.336;2023-03-21T03:40:38;-22684.47;;;8.33;89.02
5296;BME280;2670;42.720;23.336;2023-03-21T03:43:09;-22684.03;;;8.32;89.52
5296;BME280;2670;42.720;23.336;2023-03-21T03:45:42;-22681.19;;;8.22;89.02
5296;BME280;2670;42.720;23.336;2023-03-21T03:48:14;-22680.91;;;8.21;89.87
5296;BME280;2670;42.720;23.336;2023-03-21T03:50:47;-22680.47;;;8.19;90.25
5296;BME280;2670;42.720;23.336;2023-03-21T03:53:19;-22677.94;;;8.11;90.90
5296;BME280;2670;42.720;23.336;2023-03-21T03:55:49;-22679.41;;;8.16;90.71
5296;BME280;2670;42.720;23.336;2023-03-21T03:58:17;-22677.34;;;8.09;90.83
5296;BME280;2670;42.720;23.336;2023-03-21T04:00:44;-22675.41;;;8.02;90.96
5296;BME280;2670;42.720;23.336;2023-03-21T04:03:11;-22674.97;;;8.01;91.37
5296;BME280;2670;42.720;23.336;2023-03-21T04:05:39;-22673.47;;;7.95;92.35
5296;BME280;2670;42.720;23.336;2023-03-21T04:08:06;-22669.91;;;7.83;92.93
5296;BME280;2670;42.720;23.336;2023-03-21T04:10:35;-22670.50;;;7.85;93.22
5296;BME280;2670;42.720;23.336;2023-03-21T04:13:01;-22670.22;;;7.84;93.42
5296;BME280;2670;42.720;23.336;2023-03-21T04:15:28;-22669.63;;;7.82;93.66
5296;BME280;2670;42.720;23.336;2023-03-21T04:17:55;-22668.88;;;7.80;92.91
5296;BME280;2670;42.720;23.336;2023-03-21T04:20:22;-22669.03;;;7.80;93.17
5296;BME280;2670;42.720;23.336;2023-03-21T04:22:49;-22669.63;;;7.82;92.99
5296;BME280;2670;42.720;23.336;2023-03-21T04:25:16;-22668.44;;;7.78;93.28
5296;BME280;2670;42.720;23.336;2023-03-21T04:27:45;-22666.34;;;7.71;94.04
5296;BME280;2670;42.720;23.336;2023-03-21T04:30:13;-22666.06;;;7.70;93.47
5296;BME280;2670;42.720;23.336;2023-03-21T04:32:40;-22663.81;;;7.62;93.56
5296;BME280;2670;42.720;23.336;2023-03-21T04:35:08;-22663.53;;;7.61;93.91
5296;BME280;2670;42.720;23.336;2023-03-21T04:37:36;-22664.56;;;7.65;93.44
5296;BME280;2670;42.720;23.336;2023-03-21T04:40:04;-22661.59;;;7.55;94.14
5296;BME280;2670;42.720;23.336;2023-03-21T04:42:32;-22664.41;;;7.64;94.14
5296;BME280;2670;42.720;23.336;2023-03-21T04:45:01;-22662.63;;;7.58;93.72
5296;BME280;2670;42.720;23.336;2023-03-21T04:47:27;-22660.09;;;7.49;95.00
5296;BME280;2670;42.720;23.336;2023-03-21T04:49:55;-22660.25;;;7.50;95.43
5296;BME280;2670;42.720;23.336;2023-03-21T04:52:22;-22661.75;;;7.55;94.77
5296;BME280;2670;42.720;23.336;2023-03-21T04:54:49;-22659.50;;;7.47;95.57
5296;BME280;2670;42.720;23.336;2023-03-21T04:57:16;-22658.16;;;7.43;97.21
5296;BME280;2670;42.720;23.336;2023-03-21T04:59:42;-22659.50;;;7.47;97.44
5296;BME280;2670;42.720;23.336;2023-03-21T05:02:11;-22659.66;;;7.48;96.35
5296;BME280;2670;42.720;23.336;2023-03-21T05:04:38;-22660.09;;;7.49;96.66
5296;BME280;2670;42.720;23.336;2023-03-21T05:07:06;-22660.09;;;7.49;97.50
5296;BME280;2670;42.720;23.336;2023-03-21T05:09:33;-22659.50;;;7.47;97.79
5296;BME280;2670;42.720;23.336;2023-03-21T05:11:59;-22660.25;;;7.50;97.84
5296;BME280;2670;42.720;23.336;2023-03-21T05:14:26;-22659.97;;;7.49;97.16
5296;BME280;2670;42.720;23.336;2023-03-21T05:16:53;-22661.00;;;7.53;97.03
5296;BME280;2670;42.720;23.336;2023-03-21T05:19:24;-22661.75;;;7.55;97.36
5296;BME280;2670;42.720;23.336;2023-03-21T05:22:00;-22662.47;;;7.58;97.82
5296;BME280;2670;42.720;23.336;2023-03-21T05:24:29;-22663.22;;;7.60;97.26
5296;BME280;2670;42.720;23.336;2023-03-21T05:26:57;-22662.03;;;7.56;98.13
5296;BME280;2670;42.720;23.336;2023-03-21T05:29:27;-22663.38;;;7.61;97.56
5296;BME280;2670;42.720;23.336;2023-03-21T05:31:54;-22663.97;;;7.63;97.54
5296;BME280;2670;42.720;23.336;2023-03-21T05:34:22;-22665.44;;;7.68;98.22
5296;BME280;2670;42.720;23.336;2023-03-21T05:36:49;-22666.34;;;7.71;98.37
5296;BME280;2670;42.720;23.336;2023-03-21T05:39:17;-22665.16;;;7.67;98.41
5296;BME280;2670;42.720;23.336;2023-03-21T05:41:44;-22667.25;;;7.74;97.92
5296;BME280;2670;42.720;23.336;2023-03-21T05:44:10;-22668.88;;;7.80;97.74
5296;BME280;2670;42.720;23.336;2023-03-21T05:46:37;-22669.75;;;7.83;98.91
5296;BME280;2670;42.720;23.336;2023-03-21T05:49:04;-22670.66;;;7.86;98.13
5296;BME280;2670;42.720;23.336;2023-03-21T05:51:32;-22670.34;;;7.85;98.47
5296;BME280;2670;42.720;23.336;2023-03-21T05:53:58;-22674.22;;;7.98;96.49
5296;BME280;2670;42.720;23.336;2023-03-21T05:56:25;-22676.44;;;8.06;97.06
5296;BME280;2670;42.720;23.336;2023-03-21T05:58:52;-22678.22;;;8.12;96.81
5296;BME280;2670;42.720;23.336;2023-03-21T06:01:18;-22680.91;;;8.21;97.97
5296;BME280;2670;42.720;23.336;2023-03-21T06:03:45;-22683.88;;;8.31;97.21
5296;BME280;2670;42.720;23.336;2023-03-21T06:06:12;-22685.97;;;8.38;95.15
5296;BME280;2670;42.720;23.336;2023-03-21T06:08:40;-22688.19;;;8.46;94.88
5296;BME280;2670;42.720;23.336;2023-03-21T06:11:14;-22692.03;;;8.59;93.66
5296;BME280;2670;42.720;23.336;2023-03-21T06:13:44;-22694.88;;;8.69;92.85
5296;BME280;2670;42.720;23.336;2023-03-21T06:16:11;-22698.72;;;8.82;91.63
5296;BME280;2670;42.720;23.336;2023-03-21T06:18:38;-22701.69;;;8.92;91.18
5296;BME280;2670;42.720;23.336;2023-03-21T06:21:05;-22701.41;;;8.91;91.63
5296;BME280;2670;42.720;23.336;2023-03-21T06:23:32;-22704.97;;;9.04;90.75
5296;BME280;2670;42.720;23.336;2023-03-21T06:26:00;-22710.91;;;9.24;89.00
5296;BME280;2670;42.720;23.336;2023-03-21T06:28:27;-22710.75;;;9.23;88.84
5296;BME280;2670;42.720;23.336;2023-03-21T06:30:53;-22713.28;;;9.32;88.60
5296;BME280;2670;42.720;23.336;2023-03-21T06:33:20;-22715.34;;;9.39;88.13
5296;BME280;2670;42.720;23.336;2023-03-21T06:35:50;-22717.56;;;9.47;86.92
5296;BME280;2670;42.720;23.336;2023-03-21T06:38:17;-22719.34;;;9.53;87.22
5296;BME280;2670;42.720;23.336;2023-03-21T06:40:44;-22717.88;;;9.48;86.10
5296;BME280;2670;42.720;23.336;2023-03-21T06:43:12;-22719.50;;;9.54;85.10
5296;BME280;2670;42.720;23.336;2023-03-21T06:45:40;-22717.13;;;9.45;84.02
5296;BME280;2670;42.720;23.336;2023-03-21T06:48:07;-22719.50;;;9.54;79.03
5296;BME280;2670;42.720;23.336;2023-03-21T06:50:34;-22718.47;;;9.50;78.75
5296;BME280;2670;42.720;23.336;2023-03-21T06:53:01;-22719.78;;;9.55;78.70
5296;BME280;2670;42.720;23.336;2023-03-21T06:55:27;-22725.56;;;9.75;77.06
5296;BME280;2670;42.720;23.336;2023-03-21T06:57:55;-22724.38;;;9.70;76.08
5296;BME280;2670;42.720;23.336;2023-03-21T07:00:24;-22723.66;;;9.68;76.36
5296;BME280;2670;42.720;23.336;2023-03-21T07:02:51;-22721.88;;;9.62;76.10
5296;BME280;2670;42.720;23.336;2023-03-21T07:05:18;-22724.53;;;9.71;78.52
5296;BME280;2670;42.720;23.336;2023-03-21T07:07:44;-22724.97;;;9.72;79.85
5296;BME280;2670;42.720;23.336;2023-03-21T07:10:11;-22729.56;;;9.88;77.13
5296;BME280;2670;42.720;23.336;2023-03-21T07:12:39;-22729.88;;;9.89;76.40
5296;BME280;2670;42.720;23.336;2023-03-21T07:15:06;-22726.03;;;9.76;79.49
5296;BME280;2670;42.720;23.336;2023-03-21T07:17:35;-22727.50;;;9.81;81.14
5296;BME280;2670;42.720;23.336;2023-03-21T07:20:03;-22733.13;;;10.01;77.70
5296;BME280;2670;42.720;23.336;2023-03-21T07:22:31;-22733.44;;;10.02;77.97
5296;BME280;2670;42.720;23.336;2023-03-21T07:24:58;-22735.22;;;10.08;77.87
5296;BME280;2670;42.720;23.336;2023-03-21T07:27:25;-22733.28;;;10.01;78.33
5296;BME280;2670;42.720;23.336;2023-03-21T07:29:51;-22734.91;;;10.07;79.12
5296;BME280;2670;42.720;23.336;2023-03-21T07:32:18;-22737.13;;;10.14;78.42
5296;BME280;2670;42.720;23.336;2023-03-21T07:34:46;-22736.09;;;10.11;80.50
5296;BME280;2670;42.720;23.336;2023-03-21T07:37:13;-22741.75;;;10.30;80.10
5296;BME280;2670;42.720;23.336;2023-03-21T07:39:40;-22744.56;;;10.40;80.72
5296;BME280;2670;42.720;23.336;2023-03-21T07:42:07;-22746.78;;;10.47;78.44
5296;BME280;2670;42.720;23.336;2023-03-21T07:44:36;-22748.25;;;10.53;77.76
5296;BME280;2670;42.720;23.336;2023-03-21T07:47:03;-22752.41;;;10.67;77.09
5296;BME280;2670;42.720;23.336;2023-03-21T07:49:30;-22750.78;;;10.61;77.35
5296;BME280;2670;42.720;23.336;2023-03-21T07:51:58;-22756.69;;;10.82;73.88
5296;BME280;2670;42.720;23.336;2023-03-21T07:54:26;-22756.25;;;10.80;73.69
5296;BME280;2670;42.720;23.336;2023-03-21T07:56:53;-22761.59;;;10.98;71.84
5296;BME280;2670;42.720;23.336;2023-03-21T07:59:20;-22758.47;;;10.88;72.53
5296;BME280;2670;42.720;23.336;2023-03-21T08:01:46;-22761.13;;;10.97;73.11
5296;BME280;2670;42.720;23.336;2023-03-21T08:04:13;-22765.44;;;11.12;74.66
5296;BME280;2670;42.720;23.336;2023-03-21T08:06:40;-22765.88;;;11.13;74.71
5296;BME280;2670;42.720;23.336;2023-03-21T08:09:08;-22774.03;;;11.41;71.49
5296;BME280;2670;42.720;23.336;2023-03-21T08:11:35;-22775.78;;;11.47;70.86
5296;BME280;2670;42.720;23.336;2023-03-21T08:14:01;-22775.06;;;11.45;69.27
5296;BME280;2670;42.720;23.336;2023-03-21T08:16:28;-22780.22;;;11.63;68.79
5296;BME280;2670;42.720;23.336;2023-03-21T08:18:55;-22780.38;;;11.63;67.54
5296;BME280;2670;42.720;23.336;2023-03-21T08:21:21;-22786.16;;;11.83;66.79
5296;BME280;2670;42.720;23.336;2023-03-21T08:23:48;-22789.25;;;11.94;66.16
5296;BME280;2670;42.720;23.336;2023-03-21T08:26:16;-22790.16;;;11.97;64.47
5296;BME280;2670;42.720;23.336;2023-03-21T08:28:44;-22792.22;;;12.04;64.00
5296;BME280;2670;42.720;23.336;2023-03-21T08:31:12;-22793.84;;;12.10;63.11
5296;BME280;2670;42.720;23.336;2023-03-21T08:33:39;-22798.13;;;12.25;62.16
5296;BME280;2670;42.720;23.336;2023-03-21T08:36:06;-22797.97;;;12.24;61.51
5296;BME280;2670;42.720;23.336;2023-03-21T08:38:33;-22798.13;;;12.25;62.92
5296;BME280;2670;42.720;23.336;2023-03-21T08:41:00;-22798.44;;;12.26;62.04
5296;BME280;2670;42.720;23.336;2023-03-21T08:43:29;-22802.28;;;12.39;60.46
5296;BME280;2670;42.720;23.336;2023-03-21T08:45:58;-22803.59;;;12.43;61.23
5296;BME280;2670;42.720;23.336;2023-03-21T08:48:25;-22807.44;;;12.57;60.27
5296;BME280;2670;42.720;23.336;2023-03-21T08:50:51;-22806.25;;;12.53;60.37
5296;BME280;2670;42.720;23.336;2023-03-21T08:53:18;-22804.19;;;12.45;61.95
5296;BME280;2670;42.720;23.336;2023-03-21T08:55:45;-22811.28;;;12.70;59.86
5296;BME280;2670;42.720;23.336;2023-03-21T08:58:11;-22811.59;;;12.71;59.89
5296;BME280;2670;42.720;23.336;2023-03-21T09:00:39;-22812.03;;;12.73;61.61
5296;BME280;2670;42.720;23.336;2023-03-21T09:03:06;-22814.81;;;12.82;60.06
5296;BME280;2670;42.720;23.336;2023-03-21T09:05:33;-22814.25;;;12.80;59.23
5296;BME280;2670;42.720;23.336;2023-03-21T09:08:00;-22812.91;;;12.76;60.95
5296;BME280;2670;42.720;23.336;2023-03-21T09:10:28;-22818.53;;;12.95;59.16
5296;BME280;2670;42.720;23.336;2023-03-21T09:12:55;-22817.63;;;12.92;59.67
5296;BME280;2670;42.720;23.336;2023-03-21T09:15:24;-22814.53;;;12.81;60.36
5296;BME280;2670;42.720;23.336;2023-03-21T09:17:54;-22816.59;;;12.88;60.37
5296;BME280;2670;42.720;23.336;2023-03-21T09:20:24;-22819.84;;;13.00;60.06
5296;BME280;2670;42.720;23.336;2023-03-21T09:22:55;-22824.56;;;13.16;57.37
5296;BME280;2670;42.720;23.336;2023-03-21T09:25:22;-22823.84;;;13.13;58.21
5296;BME280;2670;42.720;23.336;2023-03-21T09:27:49;-22828.88;;;13.31;56.84
5296;BME280;2670;42.720;23.336;2023-03-21T09:30:19;-22829.91;;;13.34;56.55
5296;BME280;2670;42.720;23.336;2023-03-21T09:32:46;-22829.00;;;13.31;56.79
5296;BME280;2670;42.720;23.336;2023-03-21T09:35:15;-22831.09;;;13.38;61.51
5296;BME280;2670;42.720;23.336;2023-03-21T09:37:43;-22833.75;;;13.48;58.78
5296;BME280;2670;42.720;23.336;2023-03-21T09:40:14;-22834.47;;;13.50;57.78
5296;BME280;2670;42.720;23.336;2023-03-21T09:42:50;-22838.31;;;13.63;57.58
5296;BME280;2670;42.720;23.336;2023-03-21T09:45:26;-22840.69;;;13.72;56.62
5296;BME280;2670;42.720;23.336;2023-03-21T09:47:56;-22840.53;;;13.71;55.92
5296;BME280;2670;42.720;23.336;2023-03-21T09:50:28;-22843.19;;;13.80;56.28
5296;BME280;2670;42.720;23.336;2023-03-21T09:52:57;-22844.66;;;13.85;56.33
5296;BME280;2670;42.720;23.336;2023-03-21T09:55:27;-22845.25;;;13.87;55.86
5296;BME280;2670;42.720;23.336;2023-03-21T09:58:01;-22842.75;;;13.79;56.14
5296;BME280;2670;42.720;23.336;2023-03-21T10:00:34;-22847.59;;;13.95;57.38
5296;BME280;2670;42.720;23.336;2023-03-21T10:03:04;-22849.69;;;14.03;57.10
5296;BME280;2670;42.720;23.336;2023-03-21T10:05:37;-22851.75;;;14.10;56.60
5296;BME280;2670;42.720;23.336;2023-03-21T10:08:14;-22854.84;;;14.20;55.16
5296;BME280;2670;42.720;23.336;2023-03-21T10:10:46;-22849.53;;;14.02;55.53
5296;BME280;2670;42.720;23.336;2023-03-21T10:13:16;-22851.59;;;14.09;54.92
5296;BME280;2670;42.720;23.336;2023-03-21T10:15:46;-22855.28;;;14.22;54.51
5296;BME280;2670;42.720;23.336;2023-03-21T10:18:18;-22858.22;;;14.32;54.77
5296;BME280;2670;42.720;23.336;2023-03-21T10:20:48;-22864.13;;;14.53;57.11
5296;BME280;2670;42.720;23.336;2023-03-21T10:23:18;-22867.38;;;14.64;55.53
5296;BME280;2670;42.720;23.336;2023-03-21T10:25:49;-22874.00;;;14.87;56.06
5296;BME280;2670;42.720;23.336;2023-03-21T10:28:19;-22881.22;;;15.12;53.05
5296;BME280;2670;42.720;23.336;2023-03-21T10:30:49;-22886.09;;;15.29;52.87
5296;BME280;2670;42.720;23.336;2023-03-21T10:33:18;-22890.66;;;15.44;51.41
5296;BME280;2670;42.720;23.336;2023-03-21T10:35:51;-22894.78;;;15.59;53.32
5296;BME280;2670;42.720;23.336;2023-03-21T10:38:20;-22897.44;;;15.68;50.51
5296;BME280;2670;42.720;23.336;2023-03-21T10:40:48;-22898.63;;;15.72;50.86
5296;BME280;2670;42.720;23.336;2023-03-21T10:43:32;-22904.06;;;15.91;50.63
5296;BME280;2670;42.720;23.336;2023-03-21T10:46:05;-22904.50;;;15.92;48.81
5296;BME280;2670;42.720;23.336;2023-03-21T10:48:35;-22904.06;;;15.91;49.75
5296;BME280;2670;42.720;23.336;2023-03-21T10:51:05;-22908.31;;;16.06;47.44
5296;BME280;2670;42.720;23.336;2023-03-21T10:53:37;-22905.53;;;15.96;47.13
5296;BME280;2670;42.720;23.336;2023-03-21T10:56:07;-22905.97;;;15.98;48.87
5296;BME280;2670;42.720;23.336;2023-03-21T10:58:37;-22910.09;;;16.12;49.46
5296;BME280;2670;42.720;23.336;2023-03-21T11:01:09;-22912.44;;;16.20;47.17
5296;BME280;2670;42.720;23.336;2023-03-21T11:03:41;-22921.25;;;16.51;46.03
5296;BME280;2670;42.720;23.336;2023-03-21T11:06:14;-22924.34;;;16.61;47.48
5296;BME280;2670;42.720;23.336;2023-03-21T11:08:45;-22927.88;;;16.74;45.20
5296;BME280;2670;42.720;23.336;2023-03-21T11:11:19;-22931.28;;;16.85;45.56
5296;BME280;2670;42.720;23.336;2023-03-21T11:13:55;-22932.44;;;16.89;44.36
5296;BME280;2670;42.720;23.336;2023-03-21T11:16:24;-22936.28;;;17.03;44.69
5296;BME280;2670;42.720;23.336;2023-03-21T11:18:56;-22935.38;;;17.00;44.64
5296;BME280;2670;42.720;23.336;2023-03-21T11:21:24;-22935.53;;;17.00;43.96
5296;BME280;2670;42.720;23.336;2023-03-21T11:23:54;-22938.63;;;17.11;43.80
5296;BME280;2670;42.720;23.336;2023-03-21T11:26:25;-22939.34;;;17.13;45.27
5296;BME280;2670;42.720;23.336;2023-03-21T11:28:53;-22942.28;;;17.24;45.31
5296;BME280;2670;42.720;23.336;2023-03-21T11:31:21;-22946.41;;;17.38;45.23
5296;BME280;2670;42.720;23.336;2023-03-21T11:33:51;-22946.25;;;17.37;45.16
5296;BME280;2670;42.720;23.336;2023-03-21T11:36:31;-22946.41;;;17.38;44.36
5296;BME280;2670;42.720;23.336;2023-03-21T11:39:12;-22948.59;;;17.46;45.30
5296;BME280;2670;42.720;23.336;2023-03-21T11:41:41;-22949.34;;;17.48;44.23
5296;BME280;2670;42.720;23.336;2023-03-21T11:44:25;-22949.50;;;17.49;45.34
5296;BME280;2670;42.720;23.336;2023-03-21T11:46:52;-22947.88;;;17.43;42.81
5296;BME280;2670;42.720;23.336;2023-03-21T11:49:20;-22946.41;;;17.38;43.88
5296;BME280;2670;42.720;23.336;2023-03-21T11:51:56;-22945.09;;;17.33;43.97
5296;BME280;2670;42.720;23.336;2023-03-21T11:54:32;-22948.31;;;17.45;43.86
5296;BME280;2670;42.720;23.336;2023-03-21T11:57:07;-22946.56;;;17.38;45.05
5296;BME280;2670;42.720;23.336;2023-03-21T11:59:45;-22944.66;;;17.32;43.61
5296;BME280;2670;42.720;23.336;2023-03-21T12:02:29;-22947.13;;;17.40;44.05
5296;BME280;2670;42.720;23.336;2023-03-21T12:05:02;-22945.81;;;17.36;43.84
5296;BME280;2670;42.720;23.336;2023-03-21T12:07:43;-22945.66;;;17.35;43.37
5296;BME280;2670;42.720;23.336;2023-03-21T12:10:27;-22943.91;;;17.29;44.13
5296;BME280;2670;42.720;23.336;2023-03-21T12:13:02;-22945.53;;;17.35;44.56
5296;BME280;2670;42.720;23.336;2023-03-21T12:15:35;-22946.56;;;17.38;42.81
5296;BME280;2670;42.720;23.336;2023-03-21T12:18:28;-22944.06;;;17.30;44.02
5296;BME280;2670;42.720;23.336;2023-03-21T12:21:02;-22943.47;;;17.28;41.74
5296;BME280;2670;42.720;23.336;2023-03-21T12:23:45;-22943.91;;;17.29;41.26
5296;BME280;2670;42.720;23.336;2023-03-21T12:26:21;-22945.66;;;17.35;42.32
5296;BME280;2670;42.720;23.336;2023-03-21T12:31:49;-22950.22;;;17.51;43.80
5296;BME280;2670;42.720;23.336;2023-03-21T12:34:29;-22950.06;;;17.51;44.35
5296;BME280;2670;42.720;23.336;2023-03-21T12:37:08;-22950.97;;;17.54;42.33
5296;BME280;2670;42.720;23.336;2023-03-21T12:39:42;-22952.00;;;17.57;42.11
5296;BME280;2670;42.720;23.336;2023-03-21T12:42:31;-22954.47;;;17.66;42.90
5296;BME280;2670;42.720;23.336;2023-03-21T12:45:08;-22957.88;;;17.78;39.80
5296;BME280;2670;42.720;23.336;2023-03-21T12:47:37;-22954.19;;;17.65;40.63
5296;BME280;2670;42.720;23.336;2023-03-21T12:50:12;-22956.69;;;17.74;43.57
5296;BME280;2670;42.720;23.336;2023-03-21T12:52:42;-22960.06;;;17.85;41.98
5296;BME280;2670;42.720;23.336;2023-03-21T12:55:17;-22963.00;;;17.96;41.82
5296;BME280;2670;42.720;23.336;2023-03-21T12:57:48;-22962.56;;;17.94;41.04
5296;BME280;2670;42.720;23.336;2023-03-21T13:00:19;-22963.28;;;17.97;41.91
5296;BME280;2670;42.720;23.336;2023-03-21T13:02:50;-22963.75;;;17.98;41.06
5296;BME280;2670;42.720;23.336;2023-03-21T13:05:21;-22960.22;;;17.86;41.63
5296;BME280;2670;42.720;23.336;2023-03-21T13:07:57;-22961.25;;;17.89;42.51
5296;BME280;2670;42.720;23.336;2023-03-21T13:10:26;-22961.25;;;17.89;41.33
5296;BME280;2670;42.720;23.336;2023-03-21T13:13:12;-22961.53;;;17.90;41.83
5296;BME280;2670;42.720;23.336;2023-03-21T13:15:52;-22960.06;;;17.85;41.34
5296;BME280;2670;42.720;23.336;2023-03-21T13:18:30;-22957.88;;;17.78;42.67
5296;BME280;2670;42.720;23.336;2023-03-21T13:21:00;-22957.44;;;17.76;42.81
5296;BME280;2670;42.720;23.336;2023-03-21T13:23:34;-22956.25;;;17.72;42.84
5296;BME280;2670;42.720;23.336;2023-03-21T13:26:02;-22958.91;;;17.81;43.25